Time;durP1;ratioP1;P1;durP2;ratioP2;P2;SDS_P1;SDS_P2;PMS_P1;PMS_P2;Temp;Humidity;BMP_temperature;BMP_pressure;BME280_temperature;BME280_humidity;BME280_pressure;Samples;Min_cycle;Max_cycle;Signal;HPM_P1;HPM_P2
2023/05/23 00:03:44;;;;;;;12.88;5.47;;;;;;;18.31;55.68;99502.69;7576558;33;39678;-76
2023/05/23 00:08:01;;;;;;;10.57;4.45;;;;;;;18.07;56.35;99511.53;7581370;33;38672;-77
2023/05/23 00:12:18;;;;;;;8.57;3.80;;;;;;;17.98;56.58;99506.06;7581120;33;37943;-77
2023/05/23 00:16:40;;;;;;;5.97;3.53;;;;;;;18.11;55.86;99511.69;7581425;33;39309;-76
2023/05/23 00:20:56;;;;;;;6.68;3.03;;;;;;;18.04;55.79;99500.34;7567405;33;39992;-77
2023/05/23 00:25:12;;;;;;;6.03;3.15;;;;;;;18.09;55.73;99509.28;7555579;33;38712;-77
2023/05/23 00:29:28;;;;;;;5.22;3.17;;;;;;;18.31;54.88;99499.94;7560199;33;37157;-75
2023/05/23 00:33:45;;;;;;;5.65;3.42;;;;;;;18.22;55.16;99496.41;7581356;33;39441;-76
2023/05/23 00:38:01;;;;;;;6.65;3.47;;;;;;;17.75;57.00;99501.88;7581075;33;39950;-76
2023/05/23 00:42:17;;;;;;;7.28;3.65;;;;;;;18.02;55.86;99497.94;7559121;33;38619;-77
2023/05/23 00:46:33;;;;;;;15.77;5.60;;;;;;;18.17;55.42;99494.62;7555444;33;37892;-76
2023/05/23 00:50:50;;;;;;;14.27;5.95;;;;;;;18.34;55.05;99490.22;7557946;33;39495;-76
2023/05/23 00:55:07;;;;;;;10.43;4.78;;;;;;;18.32;55.08;99492.50;7581032;33;40820;-75
2023/05/23 00:59:25;;;;;;;7.32;3.45;;;;;;;18.35;54.78;99489.03;7573465;33;38487;-76
2023/05/23 01:03:44;;;;;;;6.72;3.87;;;;;;;17.98;55.74;99497.78;7578213;33;38344;-76
2023/05/23 01:08:02;;;;;;;12.00;3.80;;;;;;;17.97;55.80;99498.09;7581069;33;39431;-76
2023/05/23 01:12:39;;;;;;;7.47;3.85;;;;;;;18.04;55.65;99501.19;7556714;33;40714;-76
2023/05/23 01:17:02;;;;;;;7.20;3.30;;;;;;;17.88;56.33;99489.84;7555087;33;38716;-76
2023/05/23 01:21:21;;;;;;;4.93;3.20;;;;;;;17.81;56.12;99495.03;7560736;33;37071;-76
2023/05/23 01:25:58;;;;;;;7.50;3.95;;;;;;;18.00;55.32;99491.94;7542208;33;40196;-76
2023/05/23 01:30:17;;;;;;;8.70;3.50;;;;;;;17.86;55.83;99489.38;7554608;33;39876;-77
2023/05/23 01:34:35;;;;;;;6.05;3.53;;;;;;;17.89;55.67;99488.72;7567475;33;38498;-76
2023/05/23 01:38:51;;;;;;;8.27;4.05;;;;;;;17.77;55.97;99478.34;7564208;33;38173;-77
2023/05/23 01:43:08;;;;;;;5.43;3.37;;;;;;;17.58;56.99;99486.97;7554324;33;40281;-76
2023/05/23 01:47:25;;;;;;;6.62;3.10;;;;;;;17.71;56.70;99481.59;7554738;33;40011;-77
2023/05/23 01:51:42;;;;;;;6.05;3.40;;;;;;;17.45;57.30;99485.19;7541718;33;38650;-77
2023/05/23 01:56:02;;;;;;;7.37;3.30;;;;;;;17.42;57.44;99478.38;7554681;33;37916;-76
2023/05/23 02:00:18;;;;;;;7.95;3.90;;;;;;;17.55;56.84;99478.53;7554946;33;40063;-76
2023/05/23 02:04:35;;;;;;;9.55;3.85;;;;;;;17.60;56.54;99472.84;7541354;33;39996;-76
2023/05/23 02:08:51;;;;;;;8.20;4.30;;;;;;;17.34;57.44;99467.37;7555506;33;37851;-76
2023/05/23 02:13:07;;;;;;;8.73;4.15;;;;;;;17.13;58.49;99461.72;7580162;33;37059;-76
2023/05/23 02:17:23;;;;;;;9.52;4.60;;;;;;;17.37;57.51;99477.75;7580162;33;39112;-76
2023/05/23 02:21:40;;;;;;;7.68;3.92;;;;;;;17.41;57.40;99478.72;7569773;33;40898;-76
2023/05/23 02:25:56;;;;;;;8.43;4.25;;;;;;;17.24;57.88;99472.06;7579766;33;37856;-76
2023/05/23 02:30:12;;;;;;;6.62;4.30;;;;;;;17.25;58.12;99470.94;7569542;33;37191;-77
2023/05/23 02:34:29;;;;;;;8.65;4.20;;;;;;;17.25;57.97;99461.88;7554201;33;39462;-76
2023/05/23 02:38:45;;;;;;;7.35;3.35;;;;;;;17.08;58.38;99466.22;7554716;33;39932;-77
2023/05/23 02:43:04;;;;;;;6.68;3.47;;;;;;;16.92;58.89;99467.03;7579641;33;37876;-77
2023/05/23 02:47:20;;;;;;;8.35;3.58;;;;;;;17.03;58.09;99463.62;7579599;33;37058;-77
2023/05/23 02:51:37;;;;;;;7.55;3.65;;;;;;;16.84;58.70;99463.94;7560951;33;40229;-77
2023/05/23 02:55:53;;;;;;;7.37;3.50;;;;;;;16.93;58.39;99463.94;7553845;33;40097;-76
2023/05/23 03:00:10;;;;;;;6.20;3.67;;;;;;;16.81;58.58;99456.28;7562673;33;37569;-76
2023/05/23 03:04:28;;;;;;;7.53;4.10;;;;;;;16.94;58.16;99467.53;7555924;33;37850;-76
2023/05/23 03:08:44;;;;;;;8.55;3.87;;;;;;;16.96;57.88;99462.50;7554068;33;38003;-76
2023/05/23 03:13:00;;;;;;;6.62;3.45;;;;;;;16.97;57.73;99453.09;7579006;33;40956;-76
2023/05/23 03:17:17;;;;;;;7.40;3.95;;;;;;;17.05;57.37;99446.78;7578967;33;38645;-77
2023/05/23 03:21:34;;;;;;;7.82;3.87;;;;;;;17.14;57.24;99452.31;7562354;33;36853;-77
2023/05/23 03:25:50;;;;;;;7.82;4.28;;;;;;;17.20;57.45;99454.56;7556378;33;39379;-76
2023/05/23 03:30:08;;;;;;;7.82;3.80;;;;;;;16.89;58.74;99471.25;7574820;33;41002;-76
2023/05/23 03:34:25;;;;;;;7.35;4.03;;;;;;;17.21;58.02;99458.97;7581930;33;38660;-75
2023/05/23 03:38:42;;;;;;;10.10;4.40;;;;;;;17.07;58.83;99466.53;7571510;33;37336;-75
2023/05/23 03:43:05;;;;;;;6.03;3.97;;;;;;;17.22;58.35;99460.56;7564964;33;40043;-75
2023/05/23 03:47:23;;;;;;;;;;;;;;;16.97;59.62;99464.09;7557921;33;39746;-76
2023/05/23 03:51:39;;;;;;;8.82;3.92;;;;;;;17.25;58.84;99465.44;7581806;33;38900;-76
2023/05/23 03:55:56;;;;;;;7.22;4.00;;;;;;;17.26;58.92;99458.78;7581721;33;36834;-76
2023/05/23 04:00:12;;;;;;;8.95;3.72;;;;;;;17.13;59.31;99457.00;7562746;33;39445;-76
2023/05/23 04:04:29;;;;;;;9.02;4.07;;;;;;;17.07;59.79;99461.03;7555834;33;40849;-75
2023/05/23 04:08:46;;;;;;;10.07;3.90;;;;;;;17.07;59.59;99461.03;7565255;33;37962;-75
2023/05/23 04:13:02;;;;;;;4.93;3.30;;;;;;;17.01;59.89;99456.84;7581676;33;37840;-76
2023/05/23 04:17:18;;;;;;;7.45;3.50;;;;;;;17.06;59.63;99462.19;7580372;33;39446;-77
2023/05/23 04:21:35;;;;;;;8.20;3.72;;;;;;;17.25;59.01;99462.66;7555707;33;40035;-76
2023/05/23 04:25:51;;;;;;;9.02;3.80;;;;;;;17.27;59.38;99463.16;7555617;33;39105;-76
2023/05/23 04:30:10;;;;;;;10.15;4.85;;;;;;;17.14;60.08;99468.81;7571198;33;36970;-76
2023/05/23 04:34:27;;;;;;;11.65;5.12;;;;;;;17.10;60.26;99465.91;7529688;33;39318;-76
2023/05/23 04:38:43;;;;;;;15.27;5.65;;;;;;;17.29;59.69;99453.75;7547963;33;39675;-76
2023/05/23 04:42:59;;;;;;;14.43;6.07;;;;;;;17.49;59.28;99461.38;7572580;33;38509;-76
2023/05/23 04:47:16;;;;;;;13.90;5.68;;;;;;;17.48;59.00;99461.69;7555902;33;35659;-76
2023/05/23 04:51:33;;;;;;;10.82;5.53;;;;;;;17.64;59.04;99454.50;7555138;33;40110;-76
2023/05/23 04:55:50;;;;;;;14.57;5.93;;;;;;;17.54;59.60;99452.94;7555018;33;40852;-77
2023/05/23 05:00:09;;;;;;;13.75;5.87;;;;;;;17.87;58.82;99448.81;7554950;33;37860;-76
2023/05/23 05:04:25;;;;;;;15.05;6.03;;;;;;;17.88;59.04;99456.75;7555282;33;37858;-76
2023/05/23 05:08:42;;;;;;;12.88;6.75;;;;;;;18.00;59.42;99453.31;7560405;33;39469;-77
2023/05/23 05:12:58;;;;;;;22.90;8.90;;;;;;;18.18;59.03;99451.31;7561965;33;40376;-67
2023/05/23 05:17:15;;;;;;;17.87;7.47;;;;;;;18.45;58.99;99443.72;7555049;33;38094;-68
2023/05/23 05:21:31;;;;;;;7.53;4.05;;;;;;;18.70;56.15;99445.53;7554979;33;37793;-68
2023/05/23 05:25:48;;;;;;;11.07;4.70;;;;;;;18.87;54.36;99449.34;7557534;33;39524;-68
2023/05/23 05:30:08;;;;;;;15.50;5.70;;;;;;;18.79;56.06;99447.44;7568021;33;39881;-68
2023/05/23 05:34:24;;;;;;;11.60;4.82;;;;;;;18.93;56.89;99448.00;7572327;33;38089;-75
2023/05/23 05:38:40;;;;;;;11.80;5.00;;;;;;;19.17;56.47;99438.22;7558847;33;37093;-76
2023/05/23 05:42:56;;;;;;;7.12;3.90;;;;;;;19.36;55.70;99438.53;7554703;33;39313;-69
2023/05/23 05:47:13;;;;;;;10.20;4.10;;;;;;;19.04;56.41;99443.69;7553688;33;40812;-68
2023/05/23 05:51:30;;;;;;;8.93;3.90;;;;;;;18.84;56.89;99441.75;7557663;33;37704;-69
2023/05/23 05:55:46;;;;;;;10.05;4.20;;;;;;;19.05;55.92;99439.78;7557027;33;37023;-69
2023/05/23 06:00:10;;;;;;;7.37;3.78;;;;;;;19.42;56.18;99437.19;7559806;33;39523;-69
2023/05/23 06:04:26;;;;;;;6.68;3.70;;;;;;;19.72;54.83;99433.50;7553193;33;40786;-70
2023/05/23 06:08:43;;;;;;;8.20;3.87;;;;;;;19.79;54.67;99440.09;7553398;33;37999;-74
2023/05/23 06:12:59;;;;;;;11.70;3.05;;;;;;;19.83;55.49;99441.03;7550155;33;37752;-74
2023/05/23 06:17:15;;;;;;;8.98;3.47;;;;;;;19.86;55.55;99437.56;7553521;33;39665;-74
2023/05/23 06:21:32;;;;;;;6.93;3.97;;;;;;;19.92;55.38;99432.66;7553258;33;41432;-74
2023/05/23 06:25:48;;;;;;;6.50;3.70;;;;;;;19.91;56.20;99432.97;7553543;33;37871;-75
2023/05/23 06:30:05;;;;;;;11.25;4.22;;;;;;;20.13;55.34;99432.56;7570234;33;38098;-74
2023/05/23 06:34:22;;;;;;;10.30;3.78;;;;;;;20.28;55.24;99433.81;7551209;33;39501;-74
2023/05/23 06:38:38;;;;;;;9.00;3.80;;;;;;;20.73;54.74;99437.63;7548777;33;40748;-74
2023/05/23 06:42:55;;;;;;;14.23;4.15;;;;;;;20.71;53.74;99426.09;7552822;33;38714;-74
2023/05/23 06:47:12;;;;;;;9.55;4.20;;;;;;;21.06;53.39;99420.00;7565413;33;38161;-74
2023/05/23 06:51:29;;;;;;;7.18;3.60;;;;;;;21.38;53.04;99418.94;7560022;33;39510;-74
2023/05/23 06:55:45;;;;;;;6.70;3.37;;;;;;;21.54;51.83;99415.44;7555618;33;41453;-74
2023/05/23 07:00:01;;;;;;;6.50;3.03;;;;;;;21.64;51.04;99414.13;7553365;33;38383;-70
2023/05/23 07:04:17;;;;;;;8.10;3.55;;;;;;;21.76;51.42;99411.28;7552491;33;36858;-75
2023/05/23 07:08:34;;;;;;;8.98;3.70;;;;;;;22.09;49.82;99402.62;7566666;33;39347;-74
2023/05/23 07:12:50;;;;;;;6.25;3.37;;;;;;;22.15;49.88;99396.78;7577614;33;39941;-75
2023/05/23 07:17:06;;;;;;;9.13;3.22;;;;;;;22.06;49.52;99397.78;7555080;33;38766;-75
2023/05/23 07:21:23;;;;;;;7.07;3.33;;;;;;;21.81;50.15;99399.13;7564107;33;36898;-76
2023/05/23 07:25:39;;;;;;;5.68;3.20;;;;;;;22.36;48.90;99397.31;7561739;33;39325;-75
2023/05/23 07:30:09;;;;;;;6.43;3.20;;;;;;;22.45;49.54;99391.56;7561752;33;40189;-75
2023/05/23 07:34:29;;;;;;;6.95;3.35;;;;;;;22.86;49.69;99383.75;7564357;33;37785;-75
2023/05/23 07:38:45;;;;;;;8.32;3.37;;;;;;;23.20;49.43;99375.75;7558996;33;36820;-77
2023/05/23 07:43:02;;;;;;;8.38;3.30;;;;;;;23.76;46.89;99383.53;7548128;33;39982;-75
2023/05/23 07:47:18;;;;;;;10.85;3.50;;;;;;;23.19;47.76;99382.47;7552677;33;40712;-76
2023/05/23 07:51:35;;;;;;;8.13;3.45;;;;;;;23.96;46.08;99380.72;7550083;33;38017;-75
2023/05/23 07:55:51;;;;;;;6.35;3.20;;;;;;;24.09;44.96;99387.69;7540179;33;38830;-76
2023/05/23 08:00:08;;;;;;;8.68;3.72;;;;;;;24.51;45.90;99375.63;7550572;33;39337;-76
2023/05/23 08:04:25;;;;;;;9.52;2.95;;;;;;;24.60;44.61;99378.16;7528909;33;40929;-75
2023/05/23 08:08:42;;;;;;;10.40;3.53;;;;;;;24.35;44.86;99369.37;7543479;33;37727;-75
2023/05/23 08:12:59;;;;;;;7.78;2.87;;;;;;;25.15;44.37;99368.47;7566400;33;37089;-75
2023/05/23 08:17:16;;;;;;;6.85;3.30;;;;;;;25.02;43.66;99367.94;7581207;33;40213;-75
2023/05/23 08:21:32;;;;;;;7.68;3.70;;;;;;;25.03;42.63;99367.56;7570755;33;40781;-75
2023/05/23 08:25:48;;;;;;;8.15;3.53;;;;;;;25.19;43.46;99381.28;7555606;33;37820;-76
2023/05/23 08:30:06;;;;;;;12.07;3.47;;;;;;;25.39;42.57;99365.22;7555483;33;37090;-76
2023/05/23 08:34:22;;;;;;;12.65;3.70;;;;;;;25.48;43.56;99373.28;7555525;33;39289;-76
2023/05/23 08:38:38;;;;;;;9.02;3.03;;;;;;;25.84;44.26;99374.41;7555284;33;39930;-76
2023/05/23 08:42:55;;;;;;;5.25;3.20;;;;;;;26.32;43.71;99373.63;7555279;33;38054;-76
2023/05/23 08:47:13;;;;;;;7.20;3.17;;;;;;;26.64;42.50;99370.25;7542175;33;38224;-76
2023/05/23 08:51:31;;;;;;;7.68;3.53;;;;;;;26.90;40.86;99368.37;7542529;33;39372;-77
2023/05/23 08:55:50;;;;;;;9.32;3.62;;;;;;;27.22;39.90;99362.91;7555232;33;40720;-76
2023/05/23 09:00:13;;;;;;;4.85;3.03;;;;;;;27.45;39.57;99375.78;7542385;33;37742;-75
2023/05/23 09:04:31;;;;;;;6.05;3.37;;;;;;;27.73;40.92;99356.25;7555284;33;37003;-75
2023/05/23 09:08:47;;;;;;;9.80;3.42;;;;;;;27.38;38.95;99364.59;7548462;33;39306;-76
2023/05/23 09:13:03;;;;;;;6.93;3.47;;;;;;;27.83;39.07;99359.44;7528347;33;40838;-76
2023/05/23 09:17:21;;;;;;;6.35;3.42;;;;;;;27.66;37.23;99361.81;7553912;33;38703;-75
2023/05/23 09:21:41;;;;;;;12.73;3.47;;;;;;;27.86;37.08;99361.47;7554860;33;37317;-75
2023/05/23 09:26:01;;;;;;;7.00;3.53;;;;;;;27.74;37.06;99354.25;7555012;33;39920;-75
2023/05/23 09:30:18;;;;;;;8.00;3.53;;;;;;;27.49;34.70;99354.19;7542308;33;39986;-76
2023/05/23 09:34:34;;;;;;;10.85;3.53;;;;;;;27.32;36.39;99364.16;7554828;33;37896;-76
2023/05/23 09:38:53;;;;;;;6.97;2.97;;;;;;;27.71;34.80;99353.03;7554658;33;37983;-76
2023/05/23 09:43:09;;;;;;;6.18;3.50;;;;;;;28.19;34.50;99351.06;7541003;33;39088;-76
2023/05/23 09:47:26;;;;;;;5.37;2.97;;;;;;;28.39;33.29;99355.03;7525038;33;40035;-72
2023/05/23 09:51:42;;;;;;;7.40;3.22;;;;;;;28.72;32.82;99355.78;7554754;33;37904;-76
2023/05/23 09:56:00;;;;;;;6.68;3.25;;;;;;;28.79;32.79;99347.34;7543241;33;37212;-78
2023/05/23 10:00:17;;;;;;;4.75;2.80;;;;;;;28.88;32.14;99344.09;7559054;33;37562;-77
2023/05/23 10:04:35;;;;;;;7.68;3.70;;;;;;;28.46;31.80;99352.22;7558583;33;40680;-77
2023/05/23 10:09:14;;;;;;;5.12;3.20;;;;;;;28.82;30.02;99343.72;7567062;33;36937;-78
2023/05/23 10:13:32;;;;;;;8.93;3.62;;;;;;;28.74;31.31;99338.56;7529514;33;37048;-78
2023/05/23 10:18:03;;;;;;;7.93;3.22;;;;;;;29.01;30.70;99336.84;7554518;33;39736;-79
2023/05/23 10:22:19;;;;;;;4.65;2.85;;;;;;;29.23;30.06;99333.13;7554391;33;39989;-77
2023/05/23 10:26:39;;;;;;;9.75;3.20;;;;;;;29.18;30.58;99328.75;7559049;33;38939;-80
2023/05/23 10:30:55;;;;;;;7.47;2.90;;;;;;;29.77;29.79;99323.16;7565986;33;36722;-79
2023/05/23 10:35:23;;;;;;;5.20;2.80;;;;;;;29.96;29.00;99318.19;7576954;33;39272;-83
2023/05/23 10:39:45;;;;;;;9.73;3.30;;;;;;;30.26;28.13;99309.06;7566851;33;39930;-83
2023/05/23 10:44:15;;;;;;;7.60;3.33;;;;;;;30.61;28.82;99307.06;7556945;33;37977;-78
2023/05/23 10:48:43;;;;;;;7.20;2.83;;;;;;;30.66;27.66;99309.44;7552994;33;37108;-77
2023/05/23 10:53:01;;;;;;;4.85;3.10;;;;;;;30.33;28.36;99306.16;7567188;33;39089;-79
2023/05/23 10:57:25;;;;;;;7.10;3.00;;;;;;;30.47;28.04;99307.25;7579512;33;39247;-81
2023/05/23 11:01:42;;;;;;;11.00;3.65;;;;;;;30.80;27.07;99311.25;7579505;33;38538;-79
2023/05/23 11:05:58;;;;;;;6.60;3.20;;;;;;;30.41;28.95;99304.09;7565974;33;37853;-69
2023/05/23 11:10:15;;;;;;;10.05;3.62;;;;;;;30.10;29.42;99286.34;7579202;33;39488;-76
2023/05/23 11:14:32;;;;;;;8.15;3.28;;;;;;;30.09;30.85;99282.72;7570400;33;39677;-75
2023/05/23 11:18:49;;;;;;;5.03;3.10;;;;;;;30.30;30.53;99286.50;7551076;33;38000;-75
2023/05/23 11:23:08;;;;;;;7.40;3.20;;;;;;;30.64;28.90;99272.50;7556176;33;37747;-74
2023/05/23 11:27:36;;;;;;;9.40;3.00;;;;;;;31.15;28.57;99272.66;7553775;33;39882;-75
2023/05/23 11:31:55;;;;;;;7.62;3.40;;;;;;;31.04;26.54;99269.97;7556806;33;40868;-75
2023/05/23 11:36:12;;;;;;;7.65;3.35;;;;;;;30.71;28.97;99255.50;7556544;33;38659;-75
2023/05/23 11:40:33;;;;;;;4.45;2.90;;;;;;;30.97;28.69;99249.59;7553505;33;35384;-75
2023/05/23 11:44:50;;;;;;;4.90;2.92;;;;;;;30.90;27.37;99247.63;7556811;33;38128;-76
2023/05/23 11:49:15;;;;;;;6.07;3.35;;;;;;;30.74;28.82;99239.81;7546589;33;40016;-75
2023/05/23 11:53:32;;;;;;;7.82;2.80;;;;;;;31.15;27.25;99232.41;7527192;33;38053;-75
2023/05/23 11:57:49;;;;;;;7.68;3.08;;;;;;;31.48;27.64;99229.88;7527229;33;37793;-75
2023/05/23 12:02:07;;;;;;;5.95;2.95;;;;;;;31.15;27.78;99223.97;7528666;33;39304;-75
2023/05/23 12:06:24;;;;;;;11.30;3.58;;;;;;;31.15;28.26;99221.16;7529657;33;39988;-74
2023/05/23 12:10:52;;;;;;;5.37;2.90;;;;;;;31.69;27.42;99209.03;7529978;33;37991;-74
2023/05/23 12:15:12;;;;;;;5.55;3.40;;;;;;;31.79;29.25;99203.22;7530220;33;36289;-75
2023/05/23 12:19:29;;;;;;;7.22;3.20;;;;;;;32.17;26.78;99200.09;7530056;33;39418;-75
2023/05/23 12:23:46;;;;;;;6.10;3.45;;;;;;;32.57;27.51;99185.94;7530034;33;40956;-75
2023/05/23 12:28:03;;;;;;;13.55;4.53;;;;;;;31.19;26.95;99185.31;7529944;33;38650;-75
2023/05/23 12:32:23;;;;;;;7.65;3.78;;;;;;;30.88;28.81;99191.00;7538287;33;37774;-75
2023/05/23 12:36:41;;;;;;;18.85;3.83;;;;;;;31.83;27.40;99175.75;7529760;33;39136;-75
2023/05/23 12:41:18;;;;;;;11.15;3.58;;;;;;;32.49;29.24;99163.97;7517685;33;39927;-75
2023/05/23 12:45:35;;;;;;;6.60;3.22;;;;;;;32.66;26.53;99150.72;7516851;33;37019;-74
2023/05/23 12:49:52;;;;;;;7.12;3.22;;;;;;;32.63;26.14;99148.78;7529762;33;37996;-74
2023/05/23 12:54:08;;;;;;;11.75;3.20;;;;;;;32.52;25.38;99138.50;7529199;33;40088;-72
2023/05/23 12:58:25;;;;;;;5.35;2.97;;;;;;;33.06;26.32;99142.13;7529526;33;40850;-73
2023/05/23 13:02:43;;;;;;;8.30;2.90;;;;;;;32.89;25.51;99147.78;7528391;33;37927;-72
2023/05/23 13:06:59;;;;;;;8.45;3.42;;;;;;;32.36;23.46;99144.12;7516433;33;36825;-72
2023/05/23 13:11:16;;;;;;;9.77;3.17;;;;;;;32.93;24.51;99145.66;7529469;33;40197;-72
2023/05/23 13:15:32;;;;;;;4.18;2.62;;;;;;;32.65;24.00;99143.50;7529401;33;39599;-72
2023/05/23 13:19:48;;;;;;;6.05;3.17;;;;;;;32.71;20.74;99136.09;7516201;33;38014;-72
2023/05/23 13:24:05;;;;;;;6.70;3.08;;;;;;;32.94;21.24;99143.59;7529305;33;36710;-75
2023/05/23 13:28:21;;;;;;;7.30;3.00;;;;;;;32.55;22.50;99134.81;7529338;33;39031;-75
2023/05/23 13:32:38;;;;;;;19.92;3.72;;;;;;;32.01;23.83;99141.59;7529245;33;40116;-74
2023/05/23 13:36:54;;;;;;;8.27;3.22;;;;;;;32.81;25.93;99132.25;7536866;33;38935;-75
2023/05/23 13:41:10;;;;;;;8.65;3.47;;;;;;;33.25;23.64;99121.47;7528865;33;37600;-74
2023/05/23 13:45:27;;;;;;;7.97;3.20;;;;;;;32.46;24.41;99134.63;7529066;33;40295;-75
2023/05/23 13:49:43;;;;;;;8.93;3.20;;;;;;;32.55;23.91;99129.16;7528979;33;39728;-75
2023/05/23 13:54:00;;;;;;;6.15;3.17;;;;;;;32.46;24.11;99134.63;7528928;33;38083;-75
2023/05/23 13:58:16;;;;;;;5.68;2.80;;;;;;;32.74;23.27;99119.09;7529068;33;37088;-75
2023/05/23 14:02:33;;;;;;;7.62;3.30;;;;;;;32.00;23.95;99123.06;7528963;33;39402;-74
2023/05/23 14:06:50;;;;;;;6.70;2.92;;;;;;;30.82;25.16;99123.16;7527920;33;40797;-75
2023/05/23 14:11:06;;;;;;;6.30;3.00;;;;;;;30.83;25.61;99115.50;7528814;33;38029;-75
2023/05/23 14:15:22;;;;;;;7.57;3.08;;;;;;;31.34;25.76;99110.66;7528789;33;37826;-75
2023/05/23 14:19:39;;;;;;;6.35;3.25;;;;;;;31.54;23.61;99099.44;7528682;33;39516;-75
2023/05/23 14:23:55;;;;;;;8.43;3.10;;;;;;;31.44;25.52;99091.94;7528687;33;40582;-75
2023/05/23 14:28:13;;;;;;;12.07;3.33;;;;;;;31.15;24.38;99092.50;7528642;33;37715;-75
2023/05/23 14:32:37;;;;;;;6.85;3.17;;;;;;;30.82;24.07;99100.66;7528510;33;37308;-75
2023/05/23 14:36:54;;;;;;;7.47;3.08;;;;;;;30.63;24.81;99096.53;7528424;33;39168;-75
2023/05/23 14:41:10;;;;;;;4.80;3.05;;;;;;;30.26;24.38;99105.88;7528532;33;41039;-75
2023/05/23 14:45:26;;;;;;;6.28;2.92;;;;;;;30.53;25.21;99097.47;7528324;33;38317;-75
2023/05/23 14:49:43;;;;;;;8.50;3.10;;;;;;;29.68;25.33;99114.94;7528323;33;37203;-74
2023/05/23 14:53:59;;;;;;;7.68;3.10;;;;;;;30.05;26.49;99106.94;7528335;33;39975;-75
2023/05/23 14:58:16;;;;;;;7.95;3.50;;;;;;;30.31;26.82;99105.41;7528108;33;40561;-75
2023/05/23 15:02:33;;;;;;;7.30;3.15;;;;;;;30.59;27.35;99117.47;7527961;33;37939;-74
2023/05/23 15:06:49;;;;;;;8.52;2.90;;;;;;;29.95;25.66;99117.87;7527989;33;38006;-74
2023/05/23 15:11:06;;;;;;;6.30;2.87;;;;;;;29.72;26.61;99112.13;7527914;33;39460;-75
2023/05/23 15:15:22;;;;;;;10.02;3.15;;;;;;;29.94;27.51;99121.09;7527690;33;40853;-76
2023/05/23 15:19:41;;;;;;;9.98;3.45;;;;;;;29.80;27.28;99119.25;7517393;33;38010;-75
2023/05/23 15:23:58;;;;;;;5.85;3.10;;;;;;;29.71;26.85;99121.75;7530824;33;37939;-75
2023/05/23 15:28:15;;;;;;;5.97;3.20;;;;;;;29.33;27.30;99124.56;7530687;33;39513;-75
2023/05/23 15:32:31;;;;;;;7.95;3.47;;;;;;;28.76;29.00;99120.97;7530560;33;40047;-75
2023/05/23 15:36:47;;;;;;;7.05;3.05;;;;;;;28.09;28.53;99129.31;7547227;33;38520;-75
2023/05/23 15:41:05;;;;;;;8.05;3.53;;;;;;;27.97;29.34;99129.00;7549379;33;37875;-76
2023/05/23 15:45:21;;;;;;;6.85;3.03;;;;;;;27.91;30.02;99121.00;7549479;33;40112;-81
2023/05/23 15:49:37;;;;;;;7.78;3.20;;;;;;;27.65;30.20;99111.06;7555685;33;40560;-74
2023/05/23 15:53:54;;;;;;;10.43;3.65;;;;;;;27.66;29.47;99109.84;7554871;33;38005;-74
2023/05/23 15:58:13;;;;;;;5.50;3.17;;;;;;;27.99;30.39;99106.97;7550253;33;36551;-75
2023/05/23 16:02:29;;;;;;;5.78;3.00;;;;;;;28.22;29.76;99096.06;7534314;33;38983;-75
2023/05/23 16:06:45;;;;;;;5.45;3.40;;;;;;;28.33;29.12;99081.97;7544357;33;39801;-74
2023/05/23 16:11:02;;;;;;;9.40;3.58;;;;;;;28.25;30.03;99083.22;7529235;33;38076;-74
2023/05/23 16:15:18;;;;;;;10.70;3.33;;;;;;;28.42;28.98;99090.75;7530200;33;37031;-74
2023/05/23 16:19:34;;;;;;;9.77;3.25;;;;;;;28.31;28.87;99101.22;7529920;33;39327;-75
2023/05/23 16:23:51;;;;;;;4.87;2.97;;;;;;;28.41;28.71;99110.78;7529156;33;39904;-75
2023/05/23 16:28:08;;;;;;;6.60;3.10;;;;;;;28.27;29.03;99112.44;7529429;33;38644;-74
2023/05/23 16:32:24;;;;;;;7.55;3.28;;;;;;;28.09;29.84;99115.31;7529171;33;37250;-74
2023/05/23 16:36:40;;;;;;;8.02;3.53;;;;;;;27.83;30.09;99107.41;7529928;33;39338;-74
2023/05/23 16:40:57;;;;;;;6.37;3.00;;;;;;;27.75;30.38;99125.41;7529306;33;40286;-74
2023/05/23 16:45:13;;;;;;;10.77;2.97;;;;;;;27.65;31.19;99141.84;7529494;33;37913;-68
2023/05/23 16:49:29;;;;;;;11.93;4.15;;;;;;;25.90;35.94;99281.91;7529562;33;37672;-76
2023/05/23 16:53:46;;;;;;;11.68;4.45;;;;;;;23.19;44.96;99307.41;7528763;33;40357;-75
2023/05/23 16:58:03;;;;;;;9.68;4.60;;;;;;;21.96;50.90;99315.06;7555114;33;40053;-76
2023/05/23 17:02:20;;;;;;;10.68;4.72;;;;;;;21.35;55.62;99324.59;7530835;33;38642;-75
2023/05/23 17:06:37;;;;;;;10.73;4.00;;;;;;;21.18;56.20;99317.44;7544088;33;37862;-74
2023/05/23 17:10:53;;;;;;;17.77;4.60;;;;;;;20.57;57.59;99330.31;7538675;33;39437;-80
2023/05/23 17:15:10;;;;;;;12.25;5.10;;;;;;;20.00;60.15;99336.84;7552221;33;40579;-74
2023/05/23 17:19:26;;;;;;;9.00;4.45;;;;;;;19.84;62.44;99350.56;7529523;33;37875;-74
2023/05/23 17:23:42;;;;;;;8.10;4.53;;;;;;;19.46;62.87;99382.84;7529687;33;37872;-74
2023/05/23 17:27:59;;;;;;;12.32;5.03;;;;;;;19.41;62.46;99426.47;7529500;33;40205;-74
2023/05/23 17:32:16;;;;;;;10.85;4.70;;;;;;;19.09;63.74;99442.66;7537574;33;40808;-74
2023/05/23 17:36:33;;;;;;;8.48;4.62;;;;;;;18.91;65.28;99444.78;7533537;33;37903;-74
2023/05/23 17:40:50;;;;;;;15.57;4.97;;;;;;;19.30;65.49;99439.91;7533373;33;37154;-74
2023/05/23 17:45:08;;;;;;;13.27;5.65;;;;;;;19.78;62.80;99454.25;7536726;33;39349;-74
2023/05/23 17:49:24;;;;;;;14.27;4.80;;;;;;;19.76;64.34;99462.91;7540528;33;40146;-76
2023/05/23 17:53:41;;;;;;;13.88;6.43;;;;;;;20.01;65.20;99447.16;7537687;33;38073;-75
2023/05/23 17:57:57;;;;;;;12.13;5.22;;;;;;;20.20;64.39;99440.28;7541317;33;38537;-75
2023/05/23 18:02:13;;;;;;;9.93;5.03;;;;;;;19.63;65.17;99453.75;7572684;33;39849;-75
2023/05/23 18:06:30;;;;;;;12.82;5.22;;;;;;;19.59;64.61;99446.44;7555274;33;39817;-69
2023/05/23 18:10:46;;;;;;;8.98;5.15;;;;;;;19.73;64.86;99435.09;7555447;33;38041;-72
2023/05/23 18:15:04;;;;;;;10.77;5.35;;;;;;;19.28;65.09;99447.72;7559932;33;37070;-72
2023/05/23 18:19:21;;;;;;;11.68;4.95;;;;;;;19.49;65.79;99448.50;7549964;33;39456;-72
2023/05/23 18:23:38;;;;;;;12.73;5.43;;;;;;;19.59;64.92;99455.56;7545957;33;40687;-74
2023/05/23 18:27:58;;;;;;;10.75;5.10;;;;;;;19.35;65.08;99452.69;7536727;33;38780;-75
2023/05/23 18:32:15;;;;;;;9.70;5.10;;;;;;;19.55;64.48;99448.28;7535051;33;37886;-75
2023/05/23 18:36:31;;;;;;;8.88;5.28;;;;;;;19.37;65.30;99448.47;7536791;33;39640;-74
2023/05/23 18:40:47;;;;;;;10.98;5.43;;;;;;;19.59;65.19;99451.97;7551070;33;39682;-74
2023/05/23 18:45:04;;;;;;;13.18;5.45;;;;;;;19.33;66.28;99464.09;7553548;33;38438;-73
2023/05/23 18:49:20;;;;;;;11.15;4.72;;;;;;;19.12;67.01;99464.91;7556672;33;38505;-73
2023/05/23 18:53:37;;;;;;;10.98;5.30;;;;;;;19.10;65.84;99458.91;7557549;33;39438;-74
2023/05/23 18:57:57;;;;;;;13.15;5.47;;;;;;;18.63;66.86;99472.84;7559352;33;40045;-74
2023/05/23 19:02:14;;;;;;;9.32;5.18;;;;;;;19.13;65.27;99458.25;7559234;33;37924;-73
2023/05/23 19:06:31;;;;;;;10.43;4.93;;;;;;;19.29;64.84;99460.41;7559878;33;37179;-73
2023/05/23 19:10:48;;;;;;;16.30;4.40;;;;;;;19.38;64.34;99455.59;7557844;33;39567;-73
2023/05/23 19:15:09;;;;;;;8.52;4.70;;;;;;;19.43;63.93;99454.59;7559637;33;41022;-74
2023/05/23 19:19:26;;;;;;;8.98;5.05;;;;;;;19.38;63.93;99441.78;7543449;33;38665;-74
2023/05/23 19:23:46;;;;;;;13.00;4.95;;;;;;;19.38;64.16;99439.00;7557612;33;37236;-73
2023/05/23 19:28:03;;;;;;;9.55;4.70;;;;;;;19.39;63.61;99437.87;7559417;33;38143;-74
2023/05/23 19:32:19;;;;;;;13.23;4.85;;;;;;;19.41;63.43;99435.56;7562354;33;40876;-73
2023/05/23 19:36:36;;;;;;;15.95;4.95;;;;;;;19.60;63.38;99417.66;7558800;33;37613;-74
2023/05/23 19:40:52;;;;;;;9.70;4.72;;;;;;;19.51;63.93;99424.09;7556663;33;37204;-74
2023/05/23 19:45:09;;;;;;;10.23;4.75;;;;;;;19.58;65.12;99422.75;7558573;33;39913;-73
2023/05/23 19:49:25;;;;;;;7.95;4.55;;;;;;;19.60;65.53;99406.59;7554764;33;40563;-74
2023/05/23 19:53:41;;;;;;;8.20;4.40;;;;;;;19.81;63.92;99399.06;7549595;33;37924;-73
2023/05/23 19:57:58;;;;;;;9.48;4.70;;;;;;;19.80;64.08;99391.94;7552475;33;37158;-73
2023/05/23 20:02:14;;;;;;;8.43;4.32;;;;;;;19.79;64.19;99395.03;7552353;33;40159;-73
2023/05/23 20:06:32;;;;;;;11.23;4.50;;;;;;;19.76;64.14;99391.00;7555376;33;40763;-72
2023/05/23 20:10:48;;;;;;;8.52;4.55;;;;;;;19.66;64.33;99385.88;7565337;33;37859;-73